createdAt,value
2023-02-11T00:02:08.257Z,20.71
2023-02-11T00:04:35.173Z,20.78
2023-02-11T00:07:02.218Z,20.85
2023-02-11T00:09:31.764Z,20.66
2023-02-11T00:11:58.805Z,20.85
2023-02-11T00:14:25.898Z,20.62
2023-02-11T00:16:52.775Z,20.89
2023-02-11T00:19:21.129Z,20.79
2023-02-11T00:21:47.985Z,20.88
2023-02-11T00:24:14.810Z,20.82
2023-02-11T00:29:09.907Z,20.71
2023-02-11T00:31:37.253Z,20.61
2023-02-11T00:34:05.545Z,20.86
2023-02-11T00:36:34.073Z,20.67
2023-02-11T00:39:01.094Z,20.82
2023-02-11T00:41:28.501Z,20.52
2023-02-11T00:43:55.457Z,20.85
2023-02-11T00:46:22.852Z,20.53
2023-02-11T00:48:51.837Z,20.58
2023-02-11T00:51:21.467Z,20.73
2023-02-11T00:53:49.756Z,20.59
2023-02-11T00:56:16.874Z,20.41
2023-02-11T00:58:44.000Z,20.46
2023-02-11T01:01:10.982Z,20.81
2023-02-11T01:03:37.901Z,20.67
2023-02-11T01:06:05.675Z,21.02
2023-02-11T01:08:32.586Z,20.53
2023-02-11T01:11:04.282Z,20.46
2023-02-11T01:13:34.029Z,20.51
2023-02-11T01:16:01.268Z,20.37
2023-02-11T01:18:28.501Z,20.38
2023-02-11T01:20:56.088Z,20.65
2023-02-11T01:23:23.813Z,20.79
2023-02-11T01:25:51.802Z,20.56
2023-02-11T01:28:21.858Z,20.56
2023-02-11T01:30:49.264Z,20.39
2023-02-11T01:33:16.847Z,20.65
2023-02-11T01:35:44.656Z,20.45
2023-02-11T01:38:16.450Z,20.52
2023-02-11T01:40:47.687Z,20.69
2023-02-11T01:43:14.643Z,20.56
2023-02-11T01:46:14.166Z,20.33
2023-02-11T01:48:44.115Z,20.67
2023-02-11T01:51:14.237Z,20.53
2023-02-11T01:54:01.174Z,20.42
2023-02-11T01:56:49.409Z,20.31
2023-02-11T01:59:20.629Z,20.48
2023-02-11T02:01:57.045Z,20.67
2023-02-11T02:04:31.428Z,20.45
2023-02-11T02:07:03.750Z,20.22
2023-02-11T02:09:36.881Z,20.37
2023-02-11T02:12:04.488Z,20.23
2023-02-11T02:14:31.634Z,20.70
2023-02-11T02:16:59.983Z,20.53
2023-02-11T02:19:58.762Z,20.43
2023-02-11T02:22:52.935Z,20.25
2023-02-11T02:25:48.161Z,20.63
2023-02-11T02:28:40.962Z,20.34
2023-02-11T02:31:27.261Z,20.63
2023-02-11T02:34:00.446Z,20.51
2023-02-11T02:36:34.709Z,20.39
2023-02-11T02:39:06.038Z,20.52
2023-02-11T02:41:35.704Z,20.42
2023-02-11T02:44:02.902Z,20.42
2023-02-11T02:46:32.063Z,20.51
2023-02-11T02:49:00.928Z,20.38
2023-02-11T02:51:45.633Z,20.60
2023-02-11T02:54:45.503Z,20.59
2023-02-11T02:57:28.797Z,20.29
2023-02-11T03:00:08.917Z,20.45
2023-02-11T03:02:46.251Z,20.46
2023-02-11T03:05:19.798Z,20.26
2023-02-11T03:07:55.484Z,20.38
2023-02-11T03:10:26.852Z,20.14
2023-02-11T03:12:56.464Z,20.59
2023-02-11T03:15:26.018Z,20.30
2023-02-11T03:17:56.668Z,20.19
2023-02-11T03:20:26.693Z,20.69
2023-02-11T03:22:58.143Z,20.27
2023-02-11T03:25:28.466Z,20.55
2023-02-11T03:28:03.268Z,20.23
2023-02-11T03:30:34.911Z,20.30
2023-02-11T03:33:07.340Z,20.65
2023-02-11T03:35:41.605Z,20.70
2023-02-11T03:38:14.227Z,20.55
2023-02-11T03:40:43.642Z,20.25
2023-02-11T03:43:17.441Z,20.41
2023-02-11T03:45:46.087Z,20.59
2023-02-11T03:48:16.268Z,20.56
2023-02-11T03:50:46.701Z,20.71
2023-02-11T03:53:14.892Z,20.07
2023-02-11T03:55:43.970Z,20.60
2023-02-11T03:58:11.163Z,20.18
2023-02-11T04:00:41.104Z,20.65
2023-02-11T04:03:09.093Z,20.59
2023-02-11T04:05:35.974Z,20.32
2023-02-11T04:08:04.781Z,20.54
2023-02-11T04:10:31.619Z,20.42
2023-02-11T04:12:58.579Z,20.32
2023-02-11T04:15:25.717Z,20.29
2023-02-11T04:17:52.608Z,20.49
2023-02-11T04:20:19.769Z,20.48
2023-02-11T04:22:46.633Z,20.34
2023-02-11T04:25:14.968Z,20.60
2023-02-11T04:27:41.906Z,20.45
2023-02-11T04:30:09.754Z,20.13
2023-02-11T04:32:36.736Z,20.48
2023-02-11T04:35:04.144Z,20.25
2023-02-11T04:37:31.090Z,20.57
2023-02-11T04:39:57.971Z,20.58
2023-02-11T04:42:26.276Z,20.60
2023-02-11T04:44:53.125Z,20.59
2023-02-11T04:47:20.069Z,20.63
2023-02-11T04:49:46.932Z,20.55
2023-02-11T04:52:13.812Z,20.37
2023-02-11T04:54:40.942Z,20.49
2023-02-11T04:57:07.891Z,20.46
2023-02-11T04:59:36.087Z,20.26
2023-02-11T05:02:04.152Z,20.71
2023-02-11T05:04:31.074Z,20.59
2023-02-11T05:06:58.772Z,20.20
2023-02-11T05:09:25.717Z,20.64
2023-02-11T05:11:53.681Z,20.55
2023-02-11T05:14:20.774Z,20.81
2023-02-11T05:16:49.063Z,20.42
2023-02-11T05:19:15.947Z,20.51
2023-02-11T05:21:56.647Z,20.62
2023-02-11T05:24:27.368Z,20.70
2023-02-11T05:26:54.309Z,20.28
2023-02-11T05:29:21.201Z,20.30
2023-02-11T05:31:49.530Z,20.70
2023-02-11T05:34:16.393Z,20.79
2023-02-11T05:36:43.295Z,20.64
2023-02-11T05:39:10.106Z,20.45
2023-02-11T05:41:38.093Z,20.77
2023-02-11T05:44:04.995Z,20.29
2023-02-11T05:46:31.968Z,20.61
2023-02-11T05:49:00.252Z,20.75
2023-02-11T05:51:27.164Z,20.59
2023-02-11T05:53:54.181Z,20.62
2023-02-11T05:56:21.111Z,20.48
2023-02-11T05:58:47.971Z,20.55
2023-02-11T06:01:14.926Z,20.58
2023-02-11T06:03:41.900Z,20.57
2023-02-11T06:06:12.219Z,20.82
2023-02-11T06:08:39.669Z,20.41
2023-02-11T06:11:06.580Z,21.06
2023-02-11T06:13:33.427Z,20.47
2023-02-11T06:16:01.909Z,20.43
2023-02-11T06:18:29.514Z,20.68
2023-02-11T06:20:56.413Z,20.65
2023-02-11T06:23:24.659Z,20.91
2023-02-11T06:25:51.951Z,20.56
2023-02-11T06:28:19.313Z,20.64
2023-02-11T06:30:46.287Z,20.63
2023-02-11T06:33:13.190Z,20.47
2023-02-11T06:35:40.337Z,20.52
2023-02-11T06:38:07.252Z,20.43
2023-02-11T06:40:35.563Z,20.80
2023-02-11T06:43:02.398Z,20.79
2023-02-11T06:45:29.359Z,20.56
2023-02-11T06:47:56.257Z,20.71
2023-02-11T06:50:23.228Z,21.30
2023-02-11T06:52:50.113Z,21.51
2023-02-11T06:55:17.248Z,21.39
2023-02-11T06:57:45.477Z,21.49
2023-02-11T07:00:13.894Z,21.27
2023-02-11T07:02:40.776Z,21.22
2023-02-11T07:05:08.647Z,21.50
2023-02-11T07:07:35.749Z,21.52
2023-02-11T07:10:05.913Z,21.27
2023-02-11T07:12:32.980Z,21.27
2023-02-11T07:15:01.563Z,21.30
2023-02-11T07:17:28.492Z,21.34
2023-02-11T07:19:55.414Z,21.24
2023-02-11T07:22:22.333Z,21.15
2023-02-11T07:24:49.660Z,21.11
2023-02-11T07:27:16.508Z,21.24
2023-02-11T07:29:43.558Z,20.97
2023-02-11T07:32:11.861Z,21.07
2023-02-11T07:34:38.945Z,21.07
2023-02-11T07:37:06.147Z,21.04
2023-02-11T07:39:33.173Z,21.04
2023-02-11T07:42:00.190Z,20.78
2023-02-11T07:44:27.524Z,21.00
2023-02-11T07:46:54.473Z,21.03
2023-02-11T07:49:22.860Z,20.74
2023-02-11T07:51:51.427Z,20.94
2023-02-11T07:54:18.393Z,21.03
2023-02-11T07:56:45.314Z,20.89
2023-02-11T07:59:12.527Z,20.66
2023-02-11T08:01:39.404Z,20.96
2023-02-11T08:04:06.255Z,20.63
2023-02-11T08:06:35.822Z,20.83
2023-02-11T08:09:07.379Z,20.92
2023-02-11T08:11:34.332Z,20.98
2023-02-11T08:14:01.289Z,20.50
2023-02-11T08:16:30.550Z,20.58
2023-02-11T08:18:59.496Z,20.64
2023-02-11T08:21:27.101Z,20.53
2023-02-11T08:23:55.722Z,20.86
2023-02-11T08:26:24.419Z,20.96
2023-02-11T08:28:52.977Z,20.58
2023-02-11T08:31:21.719Z,20.83
2023-02-11T08:33:49.282Z,20.73
2023-02-11T08:36:19.567Z,20.77
2023-02-11T08:38:46.522Z,20.68
2023-02-11T08:41:15.659Z,20.57
2023-02-11T08:43:43.902Z,20.83
2023-02-11T08:46:13.269Z,20.39
2023-02-11T08:48:40.430Z,20.41
2023-02-11T08:51:08.565Z,20.43
2023-02-11T08:53:35.845Z,20.87
2023-02-11T08:56:03.223Z,20.71
2023-02-11T08:58:31.501Z,20.99
2023-02-11T09:00:58.481Z,20.89
2023-02-11T09:03:25.564Z,20.52
2023-02-11T09:05:56.978Z,20.63
2023-02-11T09:08:23.852Z,20.62
2023-02-11T09:10:50.969Z,20.95
2023-02-11T09:13:17.972Z,20.71
2023-02-11T09:15:46.926Z,20.31
2023-02-11T09:18:15.029Z,20.45
2023-02-11T09:20:42.290Z,20.27
2023-02-11T09:23:10.533Z,20.19
2023-02-11T09:25:39.296Z,20.37
2023-02-11T09:28:06.175Z,20.16
2023-02-11T09:30:33.452Z,20.52
2023-02-11T09:33:01.750Z,20.60
2023-02-11T09:35:28.739Z,20.61
2023-02-11T09:37:56.162Z,20.41
2023-02-11T09:40:23.474Z,20.26
2023-02-11T09:42:53.774Z,20.52
2023-02-11T09:45:24.256Z,20.60
2023-02-11T09:47:55.587Z,20.52
2023-02-11T09:50:27.886Z,20.36
2023-02-11T09:52:59.269Z,20.56
2023-02-11T09:55:27.560Z,20.61
2023-02-11T09:57:55.659Z,20.32
2023-02-11T10:00:26.096Z,20.53
2023-02-11T10:03:08.795Z,20.64
2023-02-11T10:05:56.410Z,20.31
2023-02-11T10:08:35.912Z,20.75
2023-02-11T10:11:08.688Z,20.93
2023-02-11T10:13:48.955Z,20.56
2023-02-11T10:16:30.186Z,20.85
2023-02-11T10:19:11.331Z,20.59
2023-02-11T10:21:50.593Z,20.34
2023-02-11T10:24:18.414Z,20.71
2023-02-11T10:26:46.152Z,20.73
2023-02-11T10:29:31.203Z,20.27
2023-02-11T10:32:00.400Z,20.64
2023-02-11T10:34:27.381Z,20.81
2023-02-11T10:36:55.647Z,20.43
2023-02-11T10:39:25.678Z,20.26
2023-02-11T10:41:57.024Z,20.47
2023-02-11T10:44:26.187Z,20.72
2023-02-11T10:46:55.663Z,20.58
2023-02-11T10:49:35.431Z,20.34
2023-02-11T10:52:20.249Z,20.45
2023-02-11T10:54:58.573Z,20.31
2023-02-11T10:57:30.082Z,20.78
2023-02-11T11:00:04.482Z,20.55
2023-02-11T11:02:35.305Z,20.45
2023-02-11T11:05:06.120Z,20.31
2023-02-11T11:07:35.192Z,20.38
2023-02-11T11:10:04.228Z,20.85
2023-02-11T11:12:35.210Z,20.33
2023-02-11T11:15:16.643Z,20.93
2023-02-11T11:17:43.420Z,20.53
2023-02-11T11:20:22.014Z,20.34
2023-02-11T11:22:52.897Z,20.50
2023-02-11T11:25:25.782Z,20.91
2023-02-11T11:27:55.892Z,20.48
2023-02-11T11:30:26.453Z,20.96
2023-02-11T11:32:53.732Z,20.73
2023-02-11T11:35:27.374Z,20.44
2023-02-11T11:38:01.365Z,20.69
2023-02-11T11:40:30.814Z,20.72
2023-02-11T11:43:15.263Z,20.96
2023-02-11T11:45:54.578Z,20.60
2023-02-11T11:48:26.487Z,20.76
2023-02-11T11:50:56.316Z,21.13
2023-02-11T11:53:31.430Z,20.55
2023-02-11T11:56:02.586Z,20.90
2023-02-11T11:58:30.756Z,20.87
2023-02-11T12:01:05.321Z,21.04
2023-02-11T12:03:58.040Z,20.80
2023-02-11T12:06:35.650Z,20.59
2023-02-11T12:09:15.494Z,20.53
2023-02-11T12:12:01.996Z,20.67
2023-02-11T12:14:39.230Z,20.67
2023-02-11T12:17:16.222Z,21.18
2023-02-11T12:19:54.985Z,21.33
2023-02-11T12:22:33.386Z,20.76
2023-02-11T12:25:18.758Z,20.91
2023-02-11T12:27:54.386Z,20.64
2023-02-11T12:30:34.546Z,21.25
2023-02-11T12:33:08.466Z,20.75
2023-02-11T12:35:47.334Z,21.15
2023-02-11T12:38:40.606Z,21.07
2023-02-11T12:41:43.213Z,21.00
2023-02-11T12:44:16.708Z,20.75
2023-02-11T12:46:50.129Z,21.26
2023-02-11T12:50:00.736Z,21.02
2023-02-11T12:52:41.575Z,21.23
2023-02-11T12:55:15.160Z,20.89
2023-02-11T12:57:46.438Z,20.95
2023-02-11T13:00:18.452Z,21.12
2023-02-11T13:02:54.323Z,21.28
2023-02-11T13:05:28.629Z,21.30
2023-02-11T13:08:03.239Z,21.21
2023-02-11T13:10:33.998Z,21.39
2023-02-11T13:13:19.182Z,21.14
2023-02-11T13:15:50.627Z,21.41
2023-02-11T13:18:30.277Z,21.39
2023-02-11T13:21:08.555Z,21.43
2023-02-11T13:23:44.630Z,21.36
2023-02-11T13:26:19.704Z,20.89
2023-02-11T13:28:54.623Z,21.32
2023-02-11T13:31:21.763Z,21.56
2023-02-11T13:33:49.641Z,21.12
2023-02-11T13:36:24.887Z,21.26
2023-02-11T13:38:58.591Z,21.47
2023-02-11T13:41:38.813Z,21.26
2023-02-11T13:44:23.944Z,21.34
2023-02-11T13:47:02.347Z,21.83
2023-02-11T13:49:33.458Z,21.64
2023-02-11T13:52:02.975Z,21.22
2023-02-11T13:54:34.471Z,21.49
2023-02-11T13:57:29.614Z,21.18
2023-02-11T14:00:00.164Z,21.82
2023-02-11T14:02:50.270Z,21.93
2023-02-11T14:05:53.801Z,21.82
2023-02-11T14:08:41.982Z,21.84
2023-02-11T14:11:55.409Z,21.88
2023-02-11T14:14:24.663Z,22.00
2023-02-11T14:17:31.032Z,21.58
2023-02-11T14:19:58.877Z,21.57
2023-02-11T14:22:29.560Z,21.84
2023-02-11T14:25:00.839Z,21.39
2023-02-11T14:27:29.532Z,21.64
2023-02-11T14:30:15.012Z,21.39
2023-02-11T14:33:00.582Z,21.78
2023-02-11T14:35:36.171Z,21.57
2023-02-11T14:38:10.617Z,21.48
2023-02-11T14:40:47.964Z,21.63
2023-02-11T14:43:19.888Z,21.50
2023-02-11T14:45:52.145Z,22.05
2023-02-11T14:48:26.263Z,21.95
2023-02-11T14:50:58.794Z,21.76
2023-02-11T14:53:28.413Z,21.91
2023-02-11T14:55:55.796Z,21.79
2023-02-11T14:58:24.801Z,22.13
2023-02-11T15:00:55.317Z,21.86
2023-02-11T15:03:32.841Z,21.73
2023-02-11T15:06:01.741Z,21.99
2023-02-11T15:08:30.694Z,21.66
2023-02-11T15:10:58.779Z,21.74
2023-02-11T15:13:31.073Z,21.74
2023-02-11T15:16:02.142Z,22.20
2023-02-11T15:18:36.431Z,21.90
2023-02-11T15:21:04.686Z,21.63
2023-02-11T15:23:32.133Z,22.31
2023-02-11T15:26:03.310Z,21.75
2023-02-11T15:28:32.950Z,22.17
2023-02-11T15:31:02.794Z,21.84
2023-02-11T15:33:31.995Z,22.27
2023-02-11T15:36:02.073Z,21.94
2023-02-11T15:38:32.538Z,22.20
2023-02-11T15:41:02.105Z,22.02
2023-02-11T15:43:42.206Z,22.07
2023-02-11T15:46:11.287Z,22.23
2023-02-11T15:48:42.725Z,22.14
2023-02-11T15:51:18.074Z,22.16
2023-02-11T15:53:49.966Z,22.51
2023-02-11T15:56:24.276Z,22.07
2023-02-11T15:58:54.532Z,22.22
2023-02-11T16:01:31.807Z,21.96
2023-02-11T16:04:01.198Z,22.63
2023-02-11T16:06:39.307Z,22.54
2023-02-11T16:09:23.105Z,21.89
2023-02-11T16:11:58.869Z,22.12
2023-02-11T16:14:31.777Z,22.43
2023-02-11T16:17:02.288Z,22.05
2023-02-11T16:19:30.451Z,22.17
2023-02-11T16:22:01.015Z,22.19
2023-02-11T16:24:31.879Z,22.52
2023-02-11T16:27:00.903Z,22.65
2023-02-11T16:29:29.353Z,22.35
2023-02-11T16:32:07.693Z,22.65
2023-02-11T16:34:34.946Z,22.65
2023-02-11T16:37:05.636Z,22.61
2023-02-11T16:39:32.930Z,22.73
2023-02-11T16:42:00.533Z,22.56
2023-02-11T16:44:27.492Z,22.35
2023-02-11T16:46:54.967Z,22.64
2023-02-11T16:49:24.612Z,22.76
2023-02-11T16:51:53.137Z,22.48
2023-02-11T16:54:21.532Z,22.43
2023-02-11T16:56:48.828Z,22.28
2023-02-11T16:59:16.098Z,22.07
2023-02-11T17:01:44.691Z,22.14
2023-02-11T17:04:16.714Z,22.51
2023-02-11T17:06:43.857Z,22.29
2023-02-11T17:09:17.870Z,22.66
2023-02-11T17:11:46.914Z,22.59
2023-02-11T17:14:14.088Z,22.65
2023-02-11T17:16:41.988Z,22.14
2023-02-11T17:19:12.371Z,22.19
2023-02-11T17:21:41.570Z,22.42
2023-02-11T17:24:08.567Z,22.13
2023-02-11T17:26:37.047Z,22.49
2023-02-11T17:29:07.047Z,22.59
2023-02-11T17:31:35.033Z,22.36
2023-02-11T17:34:02.478Z,22.57
2023-02-11T17:36:31.376Z,22.19
2023-02-11T17:38:58.830Z,22.60
2023-02-11T17:41:26.219Z,22.43
2023-02-11T17:43:53.754Z,22.61
2023-02-11T17:46:22.085Z,22.60
2023-02-11T17:48:49.151Z,22.66
2023-02-11T17:51:22.996Z,22.70
2023-02-11T17:53:50.087Z,22.75
2023-02-11T17:56:17.167Z,22.44
2023-02-11T17:58:44.361Z,22.23
2023-02-11T18:01:11.870Z,22.28
2023-02-11T18:03:40.143Z,22.52
2023-02-11T18:06:07.914Z,22.45
2023-02-11T18:08:34.928Z,22.83
2023-02-11T18:11:02.288Z,22.34
2023-02-11T18:13:29.736Z,22.73
2023-02-11T18:16:02.939Z,22.91
2023-02-11T18:18:30.164Z,22.92
2023-02-11T18:20:59.233Z,22.48
2023-02-11T18:23:27.268Z,22.88
2023-02-11T18:25:54.236Z,22.69
2023-02-11T18:28:24.891Z,22.46
2023-02-11T18:30:57.416Z,22.62
2023-02-11T18:33:24.861Z,22.57
2023-02-11T18:35:52.282Z,22.78
2023-02-11T18:38:22.387Z,22.38
2023-02-11T18:40:50.674Z,22.77
2023-02-11T18:43:17.896Z,22.49
2023-02-11T18:45:45.485Z,22.58
2023-02-11T18:48:13.070Z,22.31
2023-02-11T18:50:40.603Z,22.45
2023-02-11T18:53:07.578Z,22.43
2023-02-11T18:55:37.700Z,22.58
2023-02-11T18:58:04.693Z,22.41
2023-02-11T19:00:34.980Z,22.90
2023-02-11T19:03:02.194Z,22.46
2023-02-11T19:05:33.286Z,22.88
2023-02-11T19:08:00.748Z,22.77
2023-02-11T19:10:28.216Z,22.45
2023-02-11T19:12:58.898Z,23.02
2023-02-11T19:15:26.404Z,22.54
2023-02-11T19:17:54.491Z,22.50
2023-02-11T19:20:21.430Z,22.47
2023-02-11T19:22:48.390Z,22.98
2023-02-11T19:25:15.640Z,22.48
2023-02-11T19:27:42.711Z,23.00
2023-02-11T19:30:11.845Z,22.77
2023-02-11T19:32:38.818Z,22.89
2023-02-11T19:35:06.470Z,22.87
2023-02-11T19:37:33.573Z,22.84
2023-02-11T19:40:03.906Z,22.92
2023-02-11T19:42:30.848Z,22.69
2023-02-11T19:44:57.689Z,22.69
2023-02-11T19:47:27.862Z,22.70
2023-02-11T19:49:55.284Z,22.88
2023-02-11T19:52:22.133Z,22.79
2023-02-11T19:54:49.212Z,22.49
2023-02-11T19:57:16.164Z,22.50
2023-02-11T19:59:43.158Z,22.49
2023-02-11T20:02:10.414Z,22.63
2023-02-11T20:04:39.131Z,22.59
2023-02-11T20:07:06.306Z,22.74
2023-02-11T20:09:33.323Z,22.43
2023-02-11T20:12:00.716Z,22.54
2023-02-11T20:14:28.164Z,22.26
2023-02-11T20:16:55.229Z,22.82
2023-02-11T20:19:22.523Z,22.46
2023-02-11T20:21:52.315Z,22.63
2023-02-11T20:24:19.925Z,22.58
2023-02-11T20:26:48.837Z,22.74
2023-02-11T20:29:16.478Z,22.43
2023-02-11T20:31:43.541Z,22.70
2023-02-11T20:34:12.064Z,22.93
2023-02-11T20:36:40.398Z,22.65
2023-02-11T20:39:08.821Z,22.59
2023-02-11T20:41:36.794Z,22.88
2023-02-11T20:44:05.419Z,22.54
2023-02-11T20:46:34.592Z,22.85
2023-02-11T20:49:02.302Z,22.46
2023-02-11T20:51:31.159Z,22.68
2023-02-11T20:53:58.698Z,22.21
2023-02-11T20:56:28.823Z,22.62
2023-02-11T20:58:59.734Z,22.38
2023-02-11T21:01:29.118Z,22.41
2023-02-11T21:03:57.812Z,22.70
2023-02-11T21:06:26.860Z,22.63
2023-02-11T21:08:53.818Z,22.33
2023-02-11T21:11:20.792Z,22.63
2023-02-11T21:13:49.574Z,22.28
2023-02-11T21:16:20.453Z,22.60
2023-02-11T21:18:48.180Z,22.78
2023-02-11T21:21:15.166Z,22.63
2023-02-11T21:23:42.042Z,22.49
2023-02-11T21:26:09.306Z,22.52
2023-02-11T21:28:40.517Z,22.63
2023-02-11T21:31:09.957Z,22.58
2023-02-11T21:33:36.932Z,22.58
2023-02-11T21:36:07.789Z,22.67
2023-02-11T21:38:34.945Z,22.49
2023-02-11T21:41:06.002Z,22.78
2023-02-11T21:43:33.707Z,22.88
2023-02-11T21:46:01.108Z,22.65
2023-02-11T21:48:29.422Z,22.77
2023-02-11T21:50:56.298Z,22.79
2023-02-11T21:53:23.210Z,23.06
2023-02-11T21:55:51.329Z,22.98
2023-02-11T21:58:18.236Z,22.78
2023-02-11T22:00:45.138Z,22.93
2023-02-11T22:03:12.621Z,22.89
2023-02-11T22:05:41.411Z,23.11
2023-02-11T22:08:08.361Z,23.14
2023-02-11T22:10:35.167Z,23.14
2023-02-11T22:13:02.026Z,23.14
2023-02-11T22:15:28.910Z,23.06
2023-02-11T22:17:55.801Z,23.20
2023-02-11T22:20:23.072Z,23.30
2023-02-11T22:22:51.325Z,23.05
2023-02-11T22:25:18.456Z,23.58
2023-02-11T22:27:45.278Z,23.29
2023-02-11T22:30:13.192Z,23.40
2023-02-11T22:32:40.016Z,23.25
2023-02-11T22:35:07.105Z,23.19
2023-02-11T22:37:33.941Z,23.30
2023-02-11T22:40:02.312Z,23.30
2023-02-11T22:42:29.142Z,23.21
2023-02-11T22:44:56.020Z,23.41
2023-02-11T22:47:22.852Z,23.40
2023-02-11T22:49:49.793Z,23.28
2023-02-11T22:52:16.777Z,23.32
2023-02-11T22:54:43.740Z,23.50
2023-02-11T22:57:11.965Z,23.49
2023-02-11T22:59:38.842Z,23.58
2023-02-11T23:02:05.847Z,23.51
2023-02-11T23:04:32.742Z,23.59
2023-02-11T23:06:59.563Z,23.34
2023-02-11T23:09:26.457Z,23.53
2023-02-11T23:11:54.454Z,23.59
2023-02-11T23:14:22.737Z,23.53
2023-02-11T23:16:51.203Z,23.45
2023-02-11T23:19:18.175Z,23.49
2023-02-11T23:21:45.076Z,23.48
2023-02-11T23:24:14.053Z,23.49
2023-02-11T23:26:42.488Z,23.55
2023-02-11T23:29:10.389Z,23.41
2023-02-11T23:31:43.366Z,23.72
2023-02-11T23:34:10.420Z,23.65
2023-02-11T23:36:37.590Z,23.62
2023-02-11T23:39:04.994Z,23.74
2023-02-11T23:41:31.890Z,23.67
2023-02-11T23:43:58.795Z,23.60
2023-02-11T23:46:26.950Z,23.59
2023-02-11T23:48:55.811Z,23.63
2023-02-11T23:51:24.131Z,23.61
2023-02-11T23:53:51.633Z,23.63
2023-02-11T23:56:21.108Z,23.61
2023-02-11T23:58:48.684Z,23.69
